sensor_id;sensor_type;location;lat;lon;timestamp;P1;durP1;ratioP1;P2;durP2;ratioP2
69161;SDS011;56269;51.738;21.652;2022-08-19T00:00:47;26.40;;;15.30;;
69161;SDS011;56269;51.738;21.652;2022-08-19T00:03:15;26.17;;;16.23;;
69161;SDS011;56269;51.738;21.652;2022-08-19T00:05:42;25.60;;;16.42;;
69161;SDS011;56269;51.738;21.652;2022-08-19T00:08:08;27.73;;;16.80;;
69161;SDS011;56269;51.738;21.652;2022-08-19T00:10:34;24.45;;;15.38;;
69161;SDS011;56269;51.738;21.652;2022-08-19T00:13:00;27.92;;;17.00;;
69161;SDS011;56269;51.738;21.652;2022-08-19T00:15:25;27.75;;;16.88;;
69161;SDS011;56269;51.738;21.652;2022-08-19T00:17:52;25.67;;;17.03;;
69161;SDS011;56269;51.738;21.652;2022-08-19T00:20:18;27.92;;;17.17;;
69161;SDS011;56269;51.738;21.652;2022-08-19T00:22:46;27.17;;;16.42;;
69161;SDS011;56269;51.738;21.652;2022-08-19T00:25:14;25.23;;;15.25;;
69161;SDS011;56269;51.738;21.652;2022-08-19T00:27:41;23.85;;;15.63;;
69161;SDS011;56269;51.738;21.652;2022-08-19T00:30:07;24.17;;;15.57;;
69161;SDS011;56269;51.738;21.652;2022-08-19T00:32:36;26.48;;;16.42;;
69161;SDS011;56269;51.738;21.652;2022-08-19T00:35:02;25.98;;;16.65;;
69161;SDS011;56269;51.738;21.652;2022-08-19T00:37:29;25.02;;;15.32;;
69161;SDS011;56269;51.738;21.652;2022-08-19T00:39:55;28.87;;;15.83;;
69161;SDS011;56269;51.738;21.652;2022-08-19T00:42:22;26.20;;;15.25;;
69161;SDS011;56269;51.738;21.652;2022-08-19T00:44:48;22.95;;;15.48;;
69161;SDS011;56269;51.738;21.652;2022-08-19T00:47:16;23.35;;;15.27;;
69161;SDS011;56269;51.738;21.652;2022-08-19T00:49:49;28.38;;;16.98;;
69161;SDS011;56269;51.738;21.652;2022-08-19T00:52:24;27.97;;;17.10;;
69161;SDS011;56269;51.738;21.652;2022-08-19T00:54:54;27.80;;;17.55;;
69161;SDS011;56269;51.738;21.652;2022-08-19T00:57:23;31.92;;;18.17;;
69161;SDS011;56269;51.738;21.652;2022-08-19T00:59:59;31.83;;;18.20;;
69161;SDS011;56269;51.738;21.652;2022-08-19T01:02:27;29.23;;;18.38;;
69161;SDS011;56269;51.738;21.652;2022-08-19T01:04:53;29.10;;;18.27;;
69161;SDS011;56269;51.738;21.652;2022-08-19T01:07:20;35.38;;;18.25;;
69161;SDS011;56269;51.738;21.652;2022-08-19T01:09:46;30.38;;;17.77;;
69161;SDS011;56269;51.738;21.652;2022-08-19T01:12:12;27.85;;;17.27;;
69161;SDS011;56269;51.738;21.652;2022-08-19T01:14:39;27.33;;;16.45;;
69161;SDS011;56269;51.738;21.652;2022-08-19T01:17:09;28.33;;;16.73;;
69161;SDS011;56269;51.738;21.652;2022-08-19T01:19:37;27.05;;;16.15;;
69161;SDS011;56269;51.738;21.652;2022-08-19T01:22:08;25.55;;;16.08;;
69161;SDS011;56269;51.738;21.652;2022-08-19T01:24:40;23.05;;;15.65;;
69161;SDS011;56269;51.738;21.652;2022-08-19T01:27:06;25.25;;;16.10;;
69161;SDS011;56269;51.738;21.652;2022-08-19T01:29:33;24.90;;;15.40;;
69161;SDS011;56269;51.738;21.652;2022-08-19T01:32:00;23.40;;;15.48;;
69161;SDS011;56269;51.738;21.652;2022-08-19T01:34:26;26.27;;;16.85;;
69161;SDS011;56269;51.738;21.652;2022-08-19T01:36:52;24.33;;;15.68;;
69161;SDS011;56269;51.738;21.652;2022-08-19T01:39:20;24.75;;;15.70;;
69161;SDS011;56269;51.738;21.652;2022-08-19T01:41:49;23.53;;;14.90;;
69161;SDS011;56269;51.738;21.652;2022-08-19T01:44:17;24.63;;;15.68;;
69161;SDS011;56269;51.738;21.652;2022-08-19T01:46:47;26.38;;;16.50;;
69161;SDS011;56269;51.738;21.652;2022-08-19T01:49:14;30.42;;;16.35;;
69161;SDS011;56269;51.738;21.652;2022-08-19T01:51:40;25.45;;;16.45;;
69161;SDS011;56269;51.738;21.652;2022-08-19T01:54:07;25.40;;;17.10;;
69161;SDS011;56269;51.738;21.652;2022-08-19T01:56:35;26.15;;;17.13;;
69161;SDS011;56269;51.738;21.652;2022-08-19T01:59:02;26.20;;;15.48;;
69161;SDS011;56269;51.738;21.652;2022-08-19T02:01:34;27.40;;;15.93;;
69161;SDS011;56269;51.738;21.652;2022-08-19T02:03:59;29.50;;;17.27;;
69161;SDS011;56269;51.738;21.652;2022-08-19T02:06:28;23.67;;;16.00;;
69161;SDS011;56269;51.738;21.652;2022-08-19T02:08:55;27.73;;;16.42;;
69161;SDS011;56269;51.738;21.652;2022-08-19T02:11:26;27.83;;;17.15;;
69161;SDS011;56269;51.738;21.652;2022-08-19T02:13:54;25.45;;;16.88;;
69161;SDS011;56269;51.738;21.652;2022-08-19T02:16:21;27.67;;;16.85;;
69161;SDS011;56269;51.738;21.652;2022-08-19T02:18:47;23.97;;;16.17;;
69161;SDS011;56269;51.738;21.652;2022-08-19T02:21:14;28.13;;;15.88;;
69161;SDS011;56269;51.738;21.652;2022-08-19T02:23:45;28.55;;;17.77;;
69161;SDS011;56269;51.738;21.652;2022-08-19T02:26:11;27.52;;;16.27;;
69161;SDS011;56269;51.738;21.652;2022-08-19T02:28:39;27.08;;;16.70;;
69161;SDS011;56269;51.738;21.652;2022-08-19T02:31:12;30.33;;;18.27;;
69161;SDS011;56269;51.738;21.652;2022-08-19T02:33:40;24.70;;;16.52;;
69161;SDS011;56269;51.738;21.652;2022-08-19T02:36:07;26.73;;;16.77;;
69161;SDS011;56269;51.738;21.652;2022-08-19T02:38:34;25.05;;;15.70;;
69161;SDS011;56269;51.738;21.652;2022-08-19T02:41:04;28.55;;;17.52;;
69161;SDS011;56269;51.738;21.652;2022-08-19T02:43:33;28.07;;;18.07;;
69161;SDS011;56269;51.738;21.652;2022-08-19T02:46:19;25.92;;;16.60;;
69161;SDS011;56269;51.738;21.652;2022-08-19T02:48:51;29.20;;;17.75;;
69161;SDS011;56269;51.738;21.652;2022-08-19T02:51:19;26.65;;;16.73;;
69161;SDS011;56269;51.738;21.652;2022-08-19T02:53:48;28.90;;;16.08;;
69161;SDS011;56269;51.738;21.652;2022-08-19T02:56:15;28.63;;;16.20;;
69161;SDS011;56269;51.738;21.652;2022-08-19T02:58:41;25.15;;;15.55;;
69161;SDS011;56269;51.738;21.652;2022-08-19T03:01:08;24.35;;;15.50;;
69161;SDS011;56269;51.738;21.652;2022-08-19T03:03:36;22.67;;;15.90;;
69161;SDS011;56269;51.738;21.652;2022-08-19T03:06:10;27.02;;;16.50;;
69161;SDS011;56269;51.738;21.652;2022-08-19T03:08:40;26.03;;;16.00;;
69161;SDS011;56269;51.738;21.652;2022-08-19T03:11:12;27.38;;;15.98;;
69161;SDS011;56269;51.738;21.652;2022-08-19T03:13:39;26.75;;;16.02;;
69161;SDS011;56269;51.738;21.652;2022-08-19T03:16:05;23.00;;;15.45;;
69161;SDS011;56269;51.738;21.652;2022-08-19T03:18:31;25.63;;;14.93;;
69161;SDS011;56269;51.738;21.652;2022-08-19T03:20:57;27.40;;;15.17;;
69161;SDS011;56269;51.738;21.652;2022-08-19T03:23:23;22.83;;;14.85;;
69161;SDS011;56269;51.738;21.652;2022-08-19T03:25:50;23.90;;;15.27;;
69161;SDS011;56269;51.738;21.652;2022-08-19T03:28:17;24.08;;;15.48;;
69161;SDS011;56269;51.738;21.652;2022-08-19T03:30:54;23.30;;;14.93;;
69161;SDS011;56269;51.738;21.652;2022-08-19T03:33:25;25.08;;;15.57;;
69161;SDS011;56269;51.738;21.652;2022-08-19T03:36:08;26.33;;;16.13;;
69161;SDS011;56269;51.738;21.652;2022-08-19T03:38:41;27.42;;;16.00;;
69161;SDS011;56269;51.738;21.652;2022-08-19T03:41:10;24.17;;;15.65;;
69161;SDS011;56269;51.738;21.652;2022-08-19T03:43:39;25.43;;;15.13;;
69161;SDS011;56269;51.738;21.652;2022-08-19T03:46:07;23.08;;;15.07;;
69161;SDS011;56269;51.738;21.652;2022-08-19T03:48:36;22.55;;;15.10;;
69161;SDS011;56269;51.738;21.652;2022-08-19T03:51:04;21.77;;;14.18;;
69161;SDS011;56269;51.738;21.652;2022-08-19T03:53:31;23.42;;;14.60;;
69161;SDS011;56269;51.738;21.652;2022-08-19T03:55:58;27.03;;;15.30;;
69161;SDS011;56269;51.738;21.652;2022-08-19T03:58:25;22.23;;;14.50;;
69161;SDS011;56269;51.738;21.652;2022-08-19T04:00:54;25.73;;;16.35;;
69161;SDS011;56269;51.738;21.652;2022-08-19T04:03:22;22.15;;;14.90;;
69161;SDS011;56269;51.738;21.652;2022-08-19T04:05:49;25.55;;;14.43;;
69161;SDS011;56269;51.738;21.652;2022-08-19T04:08:15;23.60;;;14.73;;
69161;SDS011;56269;51.738;21.652;2022-08-19T04:10:46;24.55;;;15.57;;
69161;SDS011;56269;51.738;21.652;2022-08-19T04:13:13;23.00;;;14.68;;
69161;SDS011;56269;51.738;21.652;2022-08-19T04:15:41;20.95;;;13.95;;
69161;SDS011;56269;51.738;21.652;2022-08-19T04:18:09;20.83;;;13.48;;
69161;SDS011;56269;51.738;21.652;2022-08-19T04:20:42;24.27;;;14.47;;
69161;SDS011;56269;51.738;21.652;2022-08-19T04:23:10;20.55;;;12.93;;
69161;SDS011;56269;51.738;21.652;2022-08-19T04:25:37;21.95;;;13.63;;
69161;SDS011;56269;51.738;21.652;2022-08-19T04:28:06;22.65;;;14.65;;
69161;SDS011;56269;51.738;21.652;2022-08-19T04:30:42;20.55;;;13.85;;
69161;SDS011;56269;51.738;21.652;2022-08-19T04:33:13;19.60;;;13.33;;
69161;SDS011;56269;51.738;21.652;2022-08-19T04:35:43;27.00;;;12.80;;
69161;SDS011;56269;51.738;21.652;2022-08-19T04:38:12;18.20;;;12.50;;
69161;SDS011;56269;51.738;21.652;2022-08-19T04:40:43;18.45;;;12.27;;
69161;SDS011;56269;51.738;21.652;2022-08-19T04:43:30;20.17;;;13.45;;
69161;SDS011;56269;51.738;21.652;2022-08-19T04:45:57;19.47;;;12.23;;
69161;SDS011;56269;51.738;21.652;2022-08-19T04:48:24;20.00;;;12.88;;
69161;SDS011;56269;51.738;21.652;2022-08-19T04:50:53;19.88;;;12.45;;
69161;SDS011;56269;51.738;21.652;2022-08-19T04:55:52;17.67;;;11.82;;
69161;SDS011;56269;51.738;21.652;2022-08-19T04:58:18;17.30;;;11.63;;
69161;SDS011;56269;51.738;21.652;2022-08-19T05:00:44;17.77;;;11.75;;
69161;SDS011;56269;51.738;21.652;2022-08-19T05:03:10;16.30;;;11.18;;
69161;SDS011;56269;51.738;21.652;2022-08-19T05:05:40;18.38;;;11.13;;
69161;SDS011;56269;51.738;21.652;2022-08-19T05:08:06;16.75;;;10.80;;
69161;SDS011;56269;51.738;21.652;2022-08-19T05:10:35;15.43;;;10.43;;
69161;SDS011;56269;51.738;21.652;2022-08-19T05:13:02;18.60;;;10.25;;
69161;SDS011;56269;51.738;21.652;2022-08-19T05:15:29;16.30;;;10.50;;
69161;SDS011;56269;51.738;21.652;2022-08-19T05:17:55;17.10;;;10.95;;
69161;SDS011;56269;51.738;21.652;2022-08-19T05:20:40;17.35;;;10.45;;
69161;SDS011;56269;51.738;21.652;2022-08-19T05:23:50;16.97;;;10.50;;
69161;SDS011;56269;51.738;21.652;2022-08-19T05:26:16;17.63;;;10.02;;
69161;SDS011;56269;51.738;21.652;2022-08-19T05:28:42;16.27;;;10.20;;
69161;SDS011;56269;51.738;21.652;2022-08-19T05:31:08;15.20;;;9.50;;
69161;SDS011;56269;51.738;21.652;2022-08-19T05:33:34;17.40;;;9.93;;
69161;SDS011;56269;51.738;21.652;2022-08-19T05:36:01;15.48;;;9.90;;
69161;SDS011;56269;51.738;21.652;2022-08-19T05:38:28;15.48;;;9.85;;
69161;SDS011;56269;51.738;21.652;2022-08-19T05:40:55;14.95;;;9.40;;
69161;SDS011;56269;51.738;21.652;2022-08-19T05:43:21;15.03;;;9.93;;
69161;SDS011;56269;51.738;21.652;2022-08-19T05:45:47;19.38;;;10.40;;
69161;SDS011;56269;51.738;21.652;2022-08-19T05:48:13;14.95;;;9.82;;
69161;SDS011;56269;51.738;21.652;2022-08-19T05:50:40;16.20;;;10.05;;
69161;SDS011;56269;51.738;21.652;2022-08-19T05:53:07;17.83;;;10.50;;
69161;SDS011;56269;51.738;21.652;2022-08-19T05:55:34;16.50;;;9.50;;
69161;SDS011;56269;51.738;21.652;2022-08-19T05:58:03;13.27;;;8.50;;
69161;SDS011;56269;51.738;21.652;2022-08-19T06:00:30;14.18;;;8.02;;
69161;SDS011;56269;51.738;21.652;2022-08-19T06:02:56;15.10;;;8.98;;
69161;SDS011;56269;51.738;21.652;2022-08-19T06:05:24;14.63;;;9.05;;
69161;SDS011;56269;51.738;21.652;2022-08-19T06:07:50;15.00;;;8.93;;
69161;SDS011;56269;51.738;21.652;2022-08-19T06:10:16;16.33;;;9.30;;
69161;SDS011;56269;51.738;21.652;2022-08-19T06:12:42;13.52;;;8.60;;
69161;SDS011;56269;51.738;21.652;2022-08-19T06:15:10;13.88;;;8.40;;
69161;SDS011;56269;51.738;21.652;2022-08-19T06:17:38;15.57;;;8.90;;
69161;SDS011;56269;51.738;21.652;2022-08-19T06:20:05;13.52;;;8.70;;
69161;SDS011;56269;51.738;21.652;2022-08-19T06:22:37;12.43;;;8.82;;
69161;SDS011;56269;51.738;21.652;2022-08-19T06:25:04;13.60;;;8.88;;
69161;SDS011;56269;51.738;21.652;2022-08-19T06:27:30;13.30;;;8.43;;
69161;SDS011;56269;51.738;21.652;2022-08-19T06:29:58;14.70;;;8.37;;
69161;SDS011;56269;51.738;21.652;2022-08-19T06:32:24;12.52;;;8.30;;
69161;SDS011;56269;51.738;21.652;2022-08-19T06:34:50;14.00;;;8.98;;
69161;SDS011;56269;51.738;21.652;2022-08-19T06:37:16;14.65;;;8.90;;
69161;SDS011;56269;51.738;21.652;2022-08-19T06:39:42;17.77;;;8.90;;
69161;SDS011;56269;51.738;21.652;2022-08-19T06:42:10;15.27;;;9.83;;
69161;SDS011;56269;51.738;21.652;2022-08-19T06:44:39;13.85;;;8.95;;
69161;SDS011;56269;51.738;21.652;2022-08-19T06:47:08;15.75;;;9.13;;
69161;SDS011;56269;51.738;21.652;2022-08-19T06:49:35;13.68;;;9.18;;
69161;SDS011;56269;51.738;21.652;2022-08-19T06:52:02;14.10;;;9.60;;
69161;SDS011;56269;51.738;21.652;2022-08-19T06:54:29;12.70;;;8.10;;
69161;SDS011;56269;51.738;21.652;2022-08-19T06:56:55;13.20;;;9.02;;
69161;SDS011;56269;51.738;21.652;2022-08-19T06:59:23;13.10;;;8.18;;
69161;SDS011;56269;51.738;21.652;2022-08-19T07:01:54;15.85;;;8.88;;
69161;SDS011;56269;51.738;21.652;2022-08-19T07:04:26;14.63;;;8.63;;
69161;SDS011;56269;51.738;21.652;2022-08-19T07:07:18;12.55;;;8.95;;
69161;SDS011;56269;51.738;21.652;2022-08-19T07:09:43;13.05;;;8.18;;
69161;SDS011;56269;51.738;21.652;2022-08-19T07:12:11;13.98;;;8.68;;
69161;SDS011;56269;51.738;21.652;2022-08-19T07:14:40;14.05;;;8.38;;
69161;SDS011;56269;51.738;21.652;2022-08-19T07:17:08;18.50;;;8.83;;
69161;SDS011;56269;51.738;21.652;2022-08-19T07:19:36;12.70;;;8.50;;
69161;SDS011;56269;51.738;21.652;2022-08-19T07:22:04;12.90;;;8.05;;
69161;SDS011;56269;51.738;21.652;2022-08-19T07:24:31;16.73;;;7.90;;
69161;SDS011;56269;51.738;21.652;2022-08-19T07:26:59;12.32;;;7.70;;
69161;SDS011;56269;51.738;21.652;2022-08-19T07:29:29;13.23;;;7.23;;
69161;SDS011;56269;51.738;21.652;2022-08-19T07:31:58;11.50;;;7.60;;
69161;SDS011;56269;51.738;21.652;2022-08-19T07:34:25;10.98;;;6.85;;
69161;SDS011;56269;51.738;21.652;2022-08-19T07:36:52;12.25;;;7.53;;
69161;SDS011;56269;51.738;21.652;2022-08-19T07:39:24;12.90;;;7.57;;
69161;SDS011;56269;51.738;21.652;2022-08-19T07:41:53;11.47;;;7.43;;
69161;SDS011;56269;51.738;21.652;2022-08-19T07:44:20;10.75;;;7.20;;
69161;SDS011;56269;51.738;21.652;2022-08-19T07:46:50;11.35;;;7.28;;
69161;SDS011;56269;51.738;21.652;2022-08-19T07:49:18;12.95;;;7.22;;
69161;SDS011;56269;51.738;21.652;2022-08-19T07:51:52;15.52;;;8.00;;
69161;SDS011;56269;51.738;21.652;2022-08-19T07:54:21;10.60;;;6.87;;
69161;SDS011;56269;51.738;21.652;2022-08-19T07:56:49;11.88;;;7.22;;
69161;SDS011;56269;51.738;21.652;2022-08-19T07:59:16;13.82;;;8.30;;
69161;SDS011;56269;51.738;21.652;2022-08-19T08:01:43;13.45;;;7.63;;
69161;SDS011;56269;51.738;21.652;2022-08-19T08:04:09;12.77;;;7.30;;
69161;SDS011;56269;51.738;21.652;2022-08-19T08:06:54;13.30;;;6.27;;
69161;SDS011;56269;51.738;21.652;2022-08-19T08:09:40;11.95;;;6.13;;
69161;SDS011;56269;51.738;21.652;2022-08-19T08:12:10;11.20;;;7.05;;
69161;SDS011;56269;51.738;21.652;2022-08-19T08:14:40;12.05;;;7.47;;
69161;SDS011;56269;51.738;21.652;2022-08-19T08:17:10;11.90;;;7.53;;
69161;SDS011;56269;51.738;21.652;2022-08-19T08:19:36;12.30;;;6.97;;
69161;SDS011;56269;51.738;21.652;2022-08-19T08:22:03;11.65;;;7.05;;
69161;SDS011;56269;51.738;21.652;2022-08-19T08:24:32;12.48;;;7.00;;
69161;SDS011;56269;51.738;21.652;2022-08-19T08:27:00;12.25;;;7.30;;
69161;SDS011;56269;51.738;21.652;2022-08-19T08:29:27;11.40;;;7.50;;
69161;SDS011;56269;51.738;21.652;2022-08-19T08:31:55;11.70;;;8.17;;
69161;SDS011;56269;51.738;21.652;2022-08-19T08:34:21;12.10;;;7.82;;
69161;SDS011;56269;51.738;21.652;2022-08-19T08:36:48;12.00;;;8.07;;
69161;SDS011;56269;51.738;21.652;2022-08-19T08:39:15;11.73;;;7.85;;
69161;SDS011;56269;51.738;21.652;2022-08-19T08:44:20;15.33;;;8.40;;
69161;SDS011;56269;51.738;21.652;2022-08-19T08:47:05;12.05;;;7.32;;
69161;SDS011;56269;51.738;21.652;2022-08-19T08:49:43;11.77;;;7.75;;
69161;SDS011;56269;51.738;21.652;2022-08-19T08:52:18;15.75;;;8.18;;
69161;SDS011;56269;51.738;21.652;2022-08-19T08:55:00;13.30;;;8.48;;
69161;SDS011;56269;51.738;21.652;2022-08-19T08:57:35;13.47;;;7.77;;
69161;SDS011;56269;51.738;21.652;2022-08-19T09:00:12;15.18;;;7.78;;
69161;SDS011;56269;51.738;21.652;2022-08-19T09:02:45;12.07;;;7.55;;
69161;SDS011;56269;51.738;21.652;2022-08-19T09:05:11;12.45;;;7.65;;
69161;SDS011;56269;51.738;21.652;2022-08-19T09:10:39;11.87;;;7.00;;
69161;SDS011;56269;51.738;21.652;2022-08-19T09:18:39;12.48;;;6.85;;
69161;SDS011;56269;51.738;21.652;2022-08-19T09:21:06;12.05;;;6.90;;
69161;SDS011;56269;51.738;21.652;2022-08-19T09:23:46;10.00;;;5.90;;
69161;SDS011;56269;51.738;21.652;2022-08-19T09:26:14;15.07;;;7.13;;
69161;SDS011;56269;51.738;21.652;2022-08-19T09:28:41;14.70;;;6.95;;
69161;SDS011;56269;51.738;21.652;2022-08-19T09:31:10;10.35;;;6.43;;
69161;SDS011;56269;51.738;21.652;2022-08-19T09:33:37;10.70;;;6.68;;
69161;SDS011;56269;51.738;21.652;2022-08-19T09:36:04;11.63;;;6.43;;
69161;SDS011;56269;51.738;21.652;2022-08-19T09:38:33;10.88;;;6.60;;
69161;SDS011;56269;51.738;21.652;2022-08-19T09:41:07;10.15;;;6.40;;
69161;SDS011;56269;51.738;21.652;2022-08-19T09:43:36;11.48;;;6.78;;
69161;SDS011;56269;51.738;21.652;2022-08-19T09:46:03;10.88;;;6.63;;
69161;SDS011;56269;51.738;21.652;2022-08-19T09:48:32;11.50;;;6.30;;
69161;SDS011;56269;51.738;21.652;2022-08-19T09:51:02;11.27;;;6.68;;
69161;SDS011;56269;51.738;21.652;2022-08-19T09:53:30;9.98;;;6.35;;
69161;SDS011;56269;51.738;21.652;2022-08-19T09:55:56;11.25;;;6.63;;
69161;SDS011;56269;51.738;21.652;2022-08-19T09:58:22;10.80;;;5.93;;
69161;SDS011;56269;51.738;21.652;2022-08-19T10:00:56;11.27;;;6.32;;
69161;SDS011;56269;51.738;21.652;2022-08-19T10:03:24;14.13;;;5.78;;
69161;SDS011;56269;51.738;21.652;2022-08-19T10:05:51;12.23;;;6.50;;
69161;SDS011;56269;51.738;21.652;2022-08-19T10:08:19;13.18;;;6.50;;
69161;SDS011;56269;51.738;21.652;2022-08-19T10:10:51;11.40;;;6.00;;
69161;SDS011;56269;51.738;21.652;2022-08-19T10:13:18;10.10;;;6.15;;
69161;SDS011;56269;51.738;21.652;2022-08-19T10:15:48;13.05;;;5.80;;
69161;SDS011;56269;51.738;21.652;2022-08-19T10:18:16;10.20;;;5.40;;
69161;SDS011;56269;51.738;21.652;2022-08-19T10:20:48;12.57;;;6.40;;
69161;SDS011;56269;51.738;21.652;2022-08-19T10:23:16;11.30;;;5.93;;
69161;SDS011;56269;51.738;21.652;2022-08-19T10:25:43;10.95;;;6.35;;
69161;SDS011;56269;51.738;21.652;2022-08-19T10:28:09;11.63;;;5.78;;
69161;SDS011;56269;51.738;21.652;2022-08-19T10:30:38;10.70;;;6.00;;
69161;SDS011;56269;51.738;21.652;2022-08-19T10:33:05;12.32;;;6.10;;
69161;SDS011;56269;51.738;21.652;2022-08-19T10:35:31;12.13;;;5.63;;
69161;SDS011;56269;51.738;21.652;2022-08-19T10:37:58;10.25;;;5.97;;
69161;SDS011;56269;51.738;21.652;2022-08-19T10:40:25;10.45;;;5.97;;
69161;SDS011;56269;51.738;21.652;2022-08-19T10:42:53;11.18;;;5.70;;
69161;SDS011;56269;51.738;21.652;2022-08-19T10:45:22;9.63;;;5.60;;
69161;SDS011;56269;51.738;21.652;2022-08-19T10:47:51;10.07;;;5.80;;
69161;SDS011;56269;51.738;21.652;2022-08-19T10:50:18;13.10;;;6.10;;
69161;SDS011;56269;51.738;21.652;2022-08-19T10:53:03;11.20;;;5.72;;
69161;SDS011;56269;51.738;21.652;2022-08-19T10:55:34;9.20;;;5.80;;
69161;SDS011;56269;51.738;21.652;2022-08-19T10:58:19;10.38;;;5.40;;
69161;SDS011;56269;51.738;21.652;2022-08-19T11:00:57;9.30;;;4.97;;
69161;SDS011;56269;51.738;21.652;2022-08-19T11:03:25;9.52;;;5.95;;
69161;SDS011;56269;51.738;21.652;2022-08-19T11:05:59;11.25;;;5.78;;
69161;SDS011;56269;51.738;21.652;2022-08-19T11:08:27;10.90;;;5.63;;
69161;SDS011;56269;51.738;21.652;2022-08-19T11:10:54;11.45;;;5.97;;
69161;SDS011;56269;51.738;21.652;2022-08-19T11:13:22;10.87;;;6.03;;
69161;SDS011;56269;51.738;21.652;2022-08-19T11:15:56;9.35;;;5.28;;
69161;SDS011;56269;51.738;21.652;2022-08-19T11:18:26;10.27;;;5.95;;
69161;SDS011;56269;51.738;21.652;2022-08-19T11:20:53;10.02;;;5.43;;
69161;SDS011;56269;51.738;21.652;2022-08-19T11:23:19;9.93;;;5.30;;
69161;SDS011;56269;51.738;21.652;2022-08-19T11:25:45;9.07;;;5.30;;
69161;SDS011;56269;51.738;21.652;2022-08-19T11:28:12;8.00;;;4.53;;
69161;SDS011;56269;51.738;21.652;2022-08-19T11:30:38;9.52;;;5.20;;
69161;SDS011;56269;51.738;21.652;2022-08-19T11:33:05;13.45;;;5.50;;
69161;SDS011;56269;51.738;21.652;2022-08-19T11:35:31;10.82;;;5.05;;
69161;SDS011;56269;51.738;21.652;2022-08-19T11:37:58;8.87;;;5.20;;
69161;SDS011;56269;51.738;21.652;2022-08-19T11:40:26;8.57;;;5.07;;
69161;SDS011;56269;51.738;21.652;2022-08-19T11:42:52;9.63;;;5.30;;
69161;SDS011;56269;51.738;21.652;2022-08-19T11:45:25;9.38;;;5.32;;
69161;SDS011;56269;51.738;21.652;2022-08-19T11:47:53;10.30;;;5.55;;
69161;SDS011;56269;51.738;21.652;2022-08-19T11:50:19;9.13;;;4.70;;
69161;SDS011;56269;51.738;21.652;2022-08-19T11:52:46;10.48;;;5.28;;
69161;SDS011;56269;51.738;21.652;2022-08-19T11:55:12;9.75;;;4.90;;
69161;SDS011;56269;51.738;21.652;2022-08-19T11:57:39;8.95;;;5.22;;
69161;SDS011;56269;51.738;21.652;2022-08-19T12:00:06;10.30;;;4.85;;
69161;SDS011;56269;51.738;21.652;2022-08-19T12:02:35;10.00;;;5.03;;
69161;SDS011;56269;51.738;21.652;2022-08-19T12:05:02;13.13;;;5.13;;
69161;SDS011;56269;51.738;21.652;2022-08-19T12:07:29;10.25;;;5.03;;
69161;SDS011;56269;51.738;21.652;2022-08-19T12:09:58;9.85;;;5.10;;
69161;SDS011;56269;51.738;21.652;2022-08-19T12:12:26;10.07;;;5.10;;
69161;SDS011;56269;51.738;21.652;2022-08-19T12:14:52;9.07;;;4.40;;
69161;SDS011;56269;51.738;21.652;2022-08-19T12:17:24;12.30;;;5.20;;
69161;SDS011;56269;51.738;21.652;2022-08-19T12:19:52;12.05;;;5.50;;
69161;SDS011;56269;51.738;21.652;2022-08-19T12:22:19;10.80;;;5.60;;
69161;SDS011;56269;51.738;21.652;2022-08-19T12:24:46;9.45;;;4.88;;
69161;SDS011;56269;51.738;21.652;2022-08-19T12:27:13;13.40;;;5.00;;
69161;SDS011;56269;51.738;21.652;2022-08-19T12:29:39;8.25;;;4.90;;
69161;SDS011;56269;51.738;21.652;2022-08-19T12:32:05;7.88;;;4.78;;
69161;SDS011;56269;51.738;21.652;2022-08-19T12:34:31;11.25;;;4.75;;
69161;SDS011;56269;51.738;21.652;2022-08-19T12:36:58;9.80;;;4.47;;
69161;SDS011;56269;51.738;21.652;2022-08-19T12:39:27;9.50;;;4.70;;
69161;SDS011;56269;51.738;21.652;2022-08-19T12:41:53;9.38;;;4.18;;
69161;SDS011;56269;51.738;21.652;2022-08-19T12:44:19;10.35;;;4.78;;
69161;SDS011;56269;51.738;21.652;2022-08-19T12:46:46;8.32;;;4.57;;
69161;SDS011;56269;51.738;21.652;2022-08-19T12:49:13;11.13;;;4.40;;
69161;SDS011;56269;51.738;21.652;2022-08-19T12:51:39;9.67;;;4.50;;
69161;SDS011;56269;51.738;21.652;2022-08-19T12:54:04;7.50;;;4.22;;
69161;SDS011;56269;51.738;21.652;2022-08-19T12:56:30;9.10;;;4.38;;
69161;SDS011;56269;51.738;21.652;2022-08-19T12:58:57;9.67;;;4.40;;
69161;SDS011;56269;51.738;21.652;2022-08-19T13:01:22;10.30;;;4.00;;
69161;SDS011;56269;51.738;21.652;2022-08-19T13:03:49;7.95;;;4.50;;
69161;SDS011;56269;51.738;21.652;2022-08-19T13:06:17;8.40;;;4.60;;
69161;SDS011;56269;51.738;21.652;2022-08-19T13:08:43;10.00;;;4.70;;
69161;SDS011;56269;51.738;21.652;2022-08-19T13:11:13;9.57;;;4.40;;
69161;SDS011;56269;51.738;21.652;2022-08-19T13:13:43;7.18;;;3.83;;
69161;SDS011;56269;51.738;21.652;2022-08-19T13:16:13;8.23;;;4.50;;
69161;SDS011;56269;51.738;21.652;2022-08-19T13:18:40;8.67;;;4.33;;
69161;SDS011;56269;51.738;21.652;2022-08-19T13:21:08;7.30;;;4.30;;
69161;SDS011;56269;51.738;21.652;2022-08-19T13:23:50;10.27;;;4.55;;
69161;SDS011;56269;51.738;21.652;2022-08-19T13:26:17;8.93;;;4.40;;
69161;SDS011;56269;51.738;21.652;2022-08-19T13:28:44;9.20;;;4.20;;
69161;SDS011;56269;51.738;21.652;2022-08-19T13:31:31;8.27;;;4.07;;
69161;SDS011;56269;51.738;21.652;2022-08-19T13:34:19;9.60;;;4.25;;
69161;SDS011;56269;51.738;21.652;2022-08-19T13:36:52;9.68;;;4.43;;
69161;SDS011;56269;51.738;21.652;2022-08-19T13:39:19;10.52;;;4.45;;
69161;SDS011;56269;51.738;21.652;2022-08-19T13:41:46;9.57;;;4.40;;
69161;SDS011;56269;51.738;21.652;2022-08-19T13:44:14;10.10;;;4.37;;
69161;SDS011;56269;51.738;21.652;2022-08-19T13:46:41;7.95;;;4.32;;
69161;SDS011;56269;51.738;21.652;2022-08-19T13:49:13;7.97;;;4.22;;
69161;SDS011;56269;51.738;21.652;2022-08-19T13:51:40;8.90;;;4.95;;
69161;SDS011;56269;51.738;21.652;2022-08-19T13:54:08;9.35;;;4.30;;
69161;SDS011;56269;51.738;21.652;2022-08-19T13:56:35;12.60;;;4.77;;
69161;SDS011;56269;51.738;21.652;2022-08-19T13:59:06;10.90;;;4.88;;
69161;SDS011;56269;51.738;21.652;2022-08-19T14:01:32;8.73;;;4.60;;
69161;SDS011;56269;51.738;21.652;2022-08-19T14:03:58;11.95;;;5.15;;
69161;SDS011;56269;51.738;21.652;2022-08-19T14:06:24;8.13;;;4.35;;
69161;SDS011;56269;51.738;21.652;2022-08-19T14:08:50;9.60;;;4.60;;
69161;SDS011;56269;51.738;21.652;2022-08-19T14:11:17;11.32;;;4.75;;
69161;SDS011;56269;51.738;21.652;2022-08-19T14:13:44;9.18;;;4.80;;
69161;SDS011;56269;51.738;21.652;2022-08-19T14:16:11;11.35;;;5.10;;
69161;SDS011;56269;51.738;21.652;2022-08-19T14:18:38;8.25;;;5.03;;
69161;SDS011;56269;51.738;21.652;2022-08-19T14:21:05;10.13;;;4.80;;
69161;SDS011;56269;51.738;21.652;2022-08-19T14:23:35;10.20;;;4.80;;
69161;SDS011;56269;51.738;21.652;2022-08-19T14:26:08;10.85;;;4.55;;
69161;SDS011;56269;51.738;21.652;2022-08-19T14:28:37;8.73;;;4.50;;
69161;SDS011;56269;51.738;21.652;2022-08-19T14:31:08;9.68;;;5.07;;
69161;SDS011;56269;51.738;21.652;2022-08-19T14:33:34;10.10;;;4.67;;
69161;SDS011;56269;51.738;21.652;2022-08-19T14:36:00;8.18;;;4.70;;
69161;SDS011;56269;51.738;21.652;2022-08-19T14:38:27;11.40;;;4.80;;
69161;SDS011;56269;51.738;21.652;2022-08-19T14:41:06;9.65;;;4.55;;